Time;durP1;ratioP1;P1;durP2;ratioP2;P2;SDS_P1;SDS_P2;PMS_P1;PMS_P2;Temp;Humidity;BMP_temperature;BMP_pressure;BME280_temperature;BME280_humidity;BME280_pressure;Samples;Min_cycle;Max_cycle;Signal;HPM_P1;HPM_P2
2021/05/30 00:00:30;;;;;;;2.28;1.63;;;;;;;27.15;23.25;98482.47;5093375;28;20032;-84
2021/05/30 00:02:56;;;;;;;3.28;1.40;;;;;;;27.15;23.68;98481.66;5095458;28;20380;-84
2021/05/30 00:05:22;;;;;;;2.88;1.65;;;;;;;27.08;23.76;98479.84;5095523;28;20164;-84
2021/05/30 00:07:48;;;;;;;3.85;1.50;;;;;;;27.24;23.42;98487.44;5094671;28;20032;-84
2021/05/30 00:10:15;;;;;;;2.90;1.95;;;;;;;27.35;23.35;98483.09;5094949;28;20032;-84
2021/05/30 00:12:41;;;;;;;7.00;1.83;;;;;;;27.08;23.71;98479.84;5094923;28;20080;-84
2021/05/30 00:15:10;;;;;;;3.78;1.85;;;;;;;26.98;24.07;98485.78;5094393;28;20036;-84
2021/05/30 00:17:36;;;;;;;2.42;1.52;;;;;;;26.86;24.16;98480.88;5084321;28;20033;-85
2021/05/30 00:20:04;;;;;;;2.78;1.63;;;;;;;27.22;23.72;98481.47;5074789;28;20029;-84
2021/05/30 00:22:30;;;;;;;4.20;2.10;;;;;;;27.46;23.59;98482.81;5074197;28;20041;-84
2021/05/30 00:24:56;;;;;;;2.65;1.48;;;;;;;27.51;23.35;98485.09;5090279;28;20035;-84
2021/05/30 00:27:22;;;;;;;3.47;1.80;;;;;;;27.52;23.35;98489.47;5094779;28;20028;-84
2021/05/30 00:29:49;;;;;;;3.22;1.83;;;;;;;27.50;23.44;98482.69;5094163;28;20028;-83
2021/05/30 00:32:15;;;;;;;1.60;1.25;;;;;;;27.60;23.30;98482.41;5094569;28;20471;-84
2021/05/30 00:34:41;;;;;;;1.83;1.27;;;;;;;27.86;23.26;98489.66;5094122;28;20052;-84
2021/05/30 00:37:07;;;;;;;3.20;1.30;;;;;;;28.00;22.68;98482.81;5092942;28;20063;-84
2021/05/30 00:39:33;;;;;;;2.05;1.40;;;;;;;28.08;22.89;98474.91;5094203;28;20032;-84
2021/05/30 00:41:59;;;;;;;2.00;1.38;;;;;;;27.94;22.84;98482.53;5094072;28;20054;-84
2021/05/30 00:44:29;;;;;;;2.13;0.95;;;;;;;27.53;23.27;98479.00;5093907;28;20081;-83
2021/05/30 00:46:57;;;;;;;2.45;1.48;;;;;;;27.42;23.49;98482.91;5094205;28;20105;-84
2021/05/30 00:49:24;;;;;;;3.50;1.98;;;;;;;27.35;23.82;98479.50;5094025;28;20541;-84
2021/05/30 00:51:50;;;;;;;1.73;1.25;;;;;;;27.54;23.58;98472.88;5094033;28;20055;-84
2021/05/30 00:54:17;;;;;;;2.25;1.48;;;;;;;27.56;23.59;98469.63;5093968;28;20111;-84
2021/05/30 00:56:44;;;;;;;2.78;1.48;;;;;;;27.35;23.70;98476.69;5093976;28;20076;-83
2021/05/30 00:59:10;;;;;;;5.30;1.88;;;;;;;27.42;23.73;98474.44;5093553;28;20107;-83
2021/05/30 01:01:37;;;;;;;4.05;1.63;;;;;;;27.68;23.21;98475.28;5093910;28;20062;-84
2021/05/30 01:04:04;;;;;;;2.08;1.30;;;;;;;28.13;22.88;98468.69;5093812;28;20361;-84
2021/05/30 01:06:30;;;;;;;4.05;1.83;;;;;;;28.22;22.78;98469.59;5093963;28;20428;-84
2021/05/30 01:08:59;;;;;;;4.55;1.73;;;;;;;28.25;22.49;98470.72;5093721;28;20036;-84
2021/05/30 01:11:25;;;;;;;4.57;1.58;;;;;;;28.28;22.78;98467.78;5093474;28;20495;-83
2021/05/30 01:13:53;;;;;;;3.70;1.73;;;;;;;28.06;22.77;98467.69;5093615;28;20373;-83
2021/05/30 01:16:21;;;;;;;1.60;1.25;;;;;;;28.00;22.96;98474.34;5082296;28;20067;-83
2021/05/30 01:18:53;;;;;;;3.63;2.08;;;;;;;27.62;23.50;98465.81;5073324;28;20053;-84
2021/05/30 01:21:20;;;;;;;4.03;1.88;;;;;;;27.56;23.81;98459.16;5073405;28;20043;-84
2021/05/30 01:23:51;;;;;;;2.40;1.52;;;;;;;27.73;23.41;98457.81;5073392;28;20024;-84
2021/05/30 01:26:17;;;;;;;2.35;1.65;;;;;;;28.04;23.18;98458.88;5073380;28;20031;-84
2021/05/30 01:28:43;;;;;;;3.58;2.05;;;;;;;27.99;23.24;98465.09;5073283;28;20056;-84
2021/05/30 01:31:10;;;;;;;2.90;1.65;;;;;;;27.79;23.67;98469.34;5073395;28;20443;-83
2021/05/30 01:33:36;;;;;;;3.00;1.83;;;;;;;27.87;23.37;98470.69;5093220;28;20032;-84
2021/05/30 01:36:03;;;;;;;5.28;2.13;;;;;;;27.88;23.42;98464.59;5093239;28;20119;-84
2021/05/30 01:38:29;;;;;;;3.13;1.40;;;;;;;27.79;23.52;98461.66;5093334;28;20107;-84
2021/05/30 01:40:55;;;;;;;2.55;2.10;;;;;;;27.87;23.56;98465.84;5097636;28;20080;-84
2021/05/30 01:43:21;;;;;;;2.40;1.55;;;;;;;27.99;23.43;98465.09;5100121;28;20479;-84
2021/05/30 01:45:47;;;;;;;2.13;1.58;;;;;;;28.16;23.17;98468.59;5100016;28;20067;-84
2021/05/30 01:48:13;;;;;;;2.85;1.52;;;;;;;28.30;22.81;98461.69;5099808;28;20047;-84
2021/05/30 01:50:39;;;;;;;2.72;1.80;;;;;;;28.29;22.89;98460.06;5099966;28;20104;-84
2021/05/30 01:53:10;;;;;;;2.35;1.38;;;;;;;28.32;22.95;98467.66;5100293;28;20036;-84
2021/05/30 01:58:16;;;;;;;4.50;1.98;;;;;;;28.40;22.46;98471.84;5100270;28;20036;-84
2021/05/30 02:00:44;;;;;;;2.47;1.60;;;;;;;28.49;22.66;98472.72;5100206;28;20153;-84
2021/05/30 02:03:11;;;;;;;2.85;1.67;;;;;;;28.47;22.64;98465.94;5099874;28;20472;-84
2021/05/30 02:05:41;;;;;;;3.55;1.50;;;;;;;28.41;22.67;98473.41;5099563;28;20032;-83
2021/05/30 02:08:09;;;;;;;4.17;1.93;;;;;;;28.54;22.59;98477.00;5100232;28;20028;-84
2021/05/30 02:10:36;;;;;;;3.22;1.83;;;;;;;28.19;23.08;98476.16;5099123;28;20056;-84
2021/05/30 02:13:05;;;;;;;4.00;1.92;;;;;;;27.96;23.49;98477.25;5096967;28;20036;-84
2021/05/30 02:15:32;;;;;;;2.28;1.58;;;;;;;28.02;23.34;98478.31;5098314;28;20115;-84
2021/05/30 02:17:59;;;;;;;4.95;2.03;;;;;;;28.10;23.44;98475.25;5099474;28;20047;-84
2021/05/30 02:20:39;;;;;;;2.85;1.80;;;;;;;28.36;22.88;98471.94;5099936;28;20108;-84
2021/05/30 02:23:09;;;;;;;3.97;2.10;;;;;;;28.85;22.42;98469.47;5099695;28;20442;-84
2021/05/30 02:25:36;;;;;;;2.88;1.70;;;;;;;28.97;22.18;98465.81;5099503;28;20274;-84
2021/05/30 02:28:02;;;;;;;3.28;1.98;;;;;;;29.08;22.01;98468.28;5099702;28;20027;-84
2021/05/30 02:30:29;;;;;;;2.97;1.77;;;;;;;29.20;21.78;98461.78;5099952;28;20044;-84
2021/05/30 02:32:55;;;;;;;3.53;2.10;;;;;;;29.11;22.04;98461.69;5099640;28;20111;-84
2021/05/30 02:35:22;;;;;;;2.08;1.67;;;;;;;28.94;22.16;98472.38;5099363;28;20108;-84
2021/05/30 02:37:48;;;;;;;2.67;1.58;;;;;;;29.10;21.81;98460.13;5099578;28;20093;-83
2021/05/30 02:40:14;;;;;;;3.42;1.63;;;;;;;29.17;21.91;98463.47;5099221;28;20035;-84
2021/05/30 02:42:40;;;;;;;3.22;1.75;;;;;;;29.10;21.97;98463.72;5099827;28;20036;-84
2021/05/30 02:45:08;;;;;;;2.45;1.75;;;;;;;29.04;22.15;98468.41;5100019;28;20041;-84
2021/05/30 02:47:34;;;;;;;4.57;1.95;;;;;;;28.90;22.06;98466.06;5099611;28;20032;-84
2021/05/30 02:50:00;;;;;;;3.50;2.33;;;;;;;28.88;22.45;98468.56;5099752;28;20446;-83
2021/05/30 02:52:27;;;;;;;2.35;1.88;;;;;;;28.77;22.30;98464.53;5095926;28;20028;-84
2021/05/30 02:54:54;;;;;;;2.95;1.38;;;;;;;28.71;22.32;98475.63;5095972;28;20032;-84
2021/05/30 02:57:20;;;;;;;2.47;1.35;;;;;;;28.97;22.03;98465.81;5096207;28;20036;-84
2021/05/30 02:59:46;;;;;;;2.75;1.80;;;;;;;29.32;21.75;98456.06;5096090;28;20028;-84
2021/05/30 03:02:12;;;;;;;2.70;1.90;;;;;;;29.54;21.24;98469.41;5096473;28;20032;-84
2021/05/30 03:04:38;;;;;;;3.05;1.67;;;;;;;29.43;21.34;98462.13;5096030;28;20483;-84
2021/05/30 03:07:04;;;;;;;2.28;1.50;;;;;;;29.51;21.34;98465.47;5096004;28;20403;-84
2021/05/30 03:09:30;;;;;;;2.42;1.65;;;;;;;29.49;21.43;98467.97;5095645;28;20043;-84
2021/05/30 03:11:57;;;;;;;2.97;2.03;;;;;;;29.61;21.13;98469.16;5094887;28;20082;-83
2021/05/30 03:14:23;;;;;;;2.40;1.75;;;;;;;29.78;20.87;98471.31;5087211;28;20391;-84
2021/05/30 03:16:49;;;;;;;4.90;1.67;;;;;;;29.92;21.04;98470.00;5095823;28;20032;-84
2021/05/30 03:19:15;;;;;;;3.05;1.48;;;;;;;30.03;20.72;98473.97;5095673;28;20044;-84
2021/05/30 03:21:42;;;;;;;3.58;2.20;;;;;;;30.12;20.88;98473.22;5095576;28;20149;-84
2021/05/30 03:24:09;;;;;;;2.28;1.58;;;;;;;29.75;21.14;98462.94;5095521;28;20153;-83
2021/05/30 03:26:36;;;;;;;4.65;2.38;;;;;;;29.17;22.11;98468.34;5095727;28;20039;-83
2021/05/30 03:29:03;;;;;;;4.90;2.58;;;;;;;28.72;22.70;98477.22;5095582;28;20039;-84
2021/05/30 03:31:29;;;;;;;2.72;2.20;;;;;;;28.55;23.07;98478.56;5095520;28;20032;-84
2021/05/30 03:33:55;;;;;;;3.40;2.03;;;;;;;28.31;23.60;98477.38;5095458;28;20039;-83
2021/05/30 03:36:28;;;;;;;4.32;2.17;;;;;;;28.23;23.68;98481.66;5095128;28;20032;-83
2021/05/30 03:39:00;;;;;;;4.15;2.30;;;;;;;28.27;23.49;98482.34;5095498;28;20024;-84
2021/05/30 03:41:32;;;;;;;4.70;2.60;;;;;;;28.50;23.51;98476.31;5095669;28;20115;-84
2021/05/30 03:43:59;;;;;;;3.72;2.50;;;;;;;28.71;23.44;98475.63;5095672;28;20031;-83
2021/05/30 03:46:25;;;;;;;4.30;3.30;;;;;;;28.97;23.04;98485.59;5095380;28;20032;-83
2021/05/30 03:48:51;;;;;;;4.28;3.03;;;;;;;28.70;23.46;98482.53;5095106;28;20067;-83
2021/05/30 03:51:17;;;;;;;4.47;3.10;;;;;;;28.42;23.81;98483.47;5095010;28;20055;-83
2021/05/30 03:53:43;;;;;;;5.90;3.88;;;;;;;28.13;24.40;98486.41;5095637;28;20376;-83
2021/05/30 03:56:09;;;;;;;4.93;3.08;;;;;;;28.29;24.31;98486.28;5095394;28;20032;-84
2021/05/30 03:58:35;;;;;;;5.20;3.88;;;;;;;28.29;24.28;98488.31;5094918;28;20035;-83
2021/05/30 04:01:01;;;;;;;6.13;3.53;;;;;;;28.43;24.23;98497.13;5095012;28;20032;-84
2021/05/30 04:03:27;;;;;;;5.18;3.42;;;;;;;28.54;23.97;98493.97;5094599;28;20059;-84
2021/05/30 04:05:53;;;;;;;5.13;2.90;;;;;;;28.49;23.75;98489.69;5094578;28;20468;-84
2021/05/30 04:08:19;;;;;;;4.68;3.33;;;;;;;28.26;24.34;98492.88;5094688;28;20103;-84
2021/05/30 04:10:45;;;;;;;7.22;3.85;;;;;;;28.10;24.64;98497.84;5091750;28;20033;-84
2021/05/30 04:13:12;;;;;;;5.57;2.55;;;;;;;28.26;24.51;98504.16;5074544;28;20044;-84
2021/05/30 04:15:38;;;;;;;4.05;2.85;;;;;;;27.91;24.94;98506.03;5090068;28;20085;-83
2021/05/30 04:18:04;;;;;;;3.47;3.13;;;;;;;27.51;25.19;98504.84;5074261;28;20522;-83
2021/05/30 04:20:30;;;;;;;6.07;3.20;;;;;;;27.13;25.96;98503.88;5074057;28;20082;-83
2021/05/30 04:22:56;;;;;;;9.82;3.72;;;;;;;27.27;25.42;98497.84;5090465;28;20032;-83
2021/05/30 04:25:22;;;;;;;5.10;3.15;;;;;;;27.59;25.69;98505.41;5094230;28;20043;-83
2021/05/30 04:27:48;;;;;;;3.65;3.22;;;;;;;28.04;24.71;98509.69;5091998;28;20032;-84
2021/05/30 04:30:15;;;;;;;4.30;2.60;;;;;;;28.46;24.58;98506.72;5093169;28;20111;-84
2021/05/30 04:32:42;;;;;;;4.40;3.22;;;;;;;28.22;24.17;98505.50;5094369;28;20210;-84
2021/05/30 04:35:09;;;;;;;4.18;2.63;;;;;;;27.87;24.74;98510.19;5093990;28;20377;-83
2021/05/30 04:37:35;;;;;;;4.40;2.92;;;;;;;27.90;25.13;98498.81;5094725;28;20467;-83
2021/05/30 04:40:03;;;;;;;5.18;2.92;;;;;;;28.25;24.42;98510.25;5094108;28;20028;-84
2021/05/30 04:42:29;;;;;;;4.72;2.70;;;;;;;28.39;24.21;98502.13;5094198;28;20085;-84
2021/05/30 04:44:55;;;;;;;7.82;3.05;;;;;;;28.29;24.32;98506.06;5094149;28;20433;-84
2021/05/30 04:47:21;;;;;;;4.65;2.40;;;;;;;28.31;23.82;98517.69;5094041;28;20032;-84
2021/05/30 04:49:47;;;;;;;5.53;3.03;;;;;;;27.88;24.48;98508.97;5093914;28;20044;-84
2021/05/30 04:52:13;;;;;;;4.15;2.60;;;;;;;28.06;24.69;98512.84;5094012;28;20027;-84
2021/05/30 04:54:39;;;;;;;8.05;3.22;;;;;;;27.88;24.58;98509.75;5094020;28;20444;-84
2021/05/30 04:57:06;;;;;;;5.40;2.95;;;;;;;27.59;24.67;98511.03;5093868;28;20024;-84
2021/05/30 04:59:32;;;;;;;5.80;3.38;;;;;;;27.58;24.94;98513.09;5093863;28;20063;-84
2021/05/30 05:01:58;;;;;;;4.65;3.78;;;;;;;27.41;25.11;98517.22;5093929;28;20028;-83
2021/05/30 05:04:25;;;;;;;4.70;3.55;;;;;;;27.32;25.41;98511.41;5093572;28;20032;-84
2021/05/30 05:06:51;;;;;;;4.03;3.58;;;;;;;27.74;25.26;98512.22;5085775;28;20024;-84
2021/05/30 05:09:17;;;;;;;3.67;2.75;;;;;;;28.01;24.85;98515.44;5077667;28;20039;-84
2021/05/30 05:11:43;;;;;;;5.10;3.90;;;;;;;28.20;24.50;98516.47;5093630;28;20538;-84
2021/05/30 05:14:09;;;;;;;5.25;3.58;;;;;;;28.29;24.12;98519.38;5093207;28;20031;-84
2021/05/30 05:16:35;;;;;;;4.03;3.08;;;;;;;28.17;24.26;98523.78;5091734;28;20387;-84
2021/05/30 05:19:02;;;;;;;4.35;3.13;;;;;;;28.01;24.28;98523.91;5093227;28;20048;-84
2021/05/30 05:21:28;;;;;;;3.83;2.80;;;;;;;28.24;24.34;98528.44;5093627;28;20107;-84
2021/05/30 05:23:54;;;;;;;2.85;2.33;;;;;;;28.43;23.99;98533.84;5093559;28;20494;-84
2021/05/30 05:26:21;;;;;;;4.03;2.85;;;;;;;28.14;24.02;98538.84;5093628;28;20042;-84
2021/05/30 05:28:48;;;;;;;3.08;2.75;;;;;;;28.26;24.41;98540.88;5093819;28;20464;-84
2021/05/30 05:31:14;;;;;;;5.32;2.53;;;;;;;28.65;24.14;98537.59;5093310;28;20361;-84
2021/05/30 05:33:42;;;;;;;2.80;2.60;;;;;;;28.32;23.67;98541.88;5091954;28;20043;-84
2021/05/30 05:36:09;;;;;;;3.05;2.45;;;;;;;27.38;24.73;98537.84;5093392;28;20020;-84
2021/05/30 05:38:35;;;;;;;4.30;3.42;;;;;;;27.20;25.61;98543.16;5082715;28;20131;-84
2021/05/30 05:41:02;;;;;;;5.00;2.33;;;;;;;27.69;24.95;98538.97;5073235;28;20039;-84
2021/05/30 05:43:28;;;;;;;4.00;2.55;;;;;;;28.21;24.25;98537.81;5073270;28;20047;-84
2021/05/30 05:45:54;;;;;;;2.78;2.38;;;;;;;28.55;24.09;98541.53;5073109;28;20549;-84
2021/05/30 05:48:20;;;;;;;4.15;2.15;;;;;;;27.62;24.39;98544.81;5092095;28;20035;-84
2021/05/30 05:50:47;;;;;;;2.63;2.42;;;;;;;26.23;27.03;98551.63;5093263;28;20040;-84
2021/05/30 05:53:13;;;;;;;3.92;2.60;;;;;;;26.92;26.18;98541.09;5093400;28;20035;-84
2021/05/30 05:55:40;;;;;;;3.10;2.90;;;;;;;27.31;25.85;98552.91;5093746;28;20040;-84
2021/05/30 05:58:06;;;;;;;3.38;2.78;;;;;;;28.25;24.81;98546.97;5093179;28;20488;-84
2021/05/30 06:00:32;;;;;;;3.20;2.83;;;;;;;28.59;24.23;98545.06;5077724;28;20040;-83
2021/05/30 06:02:59;;;;;;;2.83;2.20;;;;;;;28.52;24.01;98550.13;5072831;28;20028;-84
2021/05/30 06:05:26;;;;;;;2.78;2.58;;;;;;;28.38;24.07;98554.19;5092871;28;20044;-84
2021/05/30 06:07:54;;;;;;;3.35;2.63;;;;;;;27.95;24.90;98554.72;5093159;28;20433;-84
2021/05/30 06:10:25;;;;;;;3.25;2.95;;;;;;;27.90;24.54;98552.44;5092960;28;20032;-84
2021/05/30 06:12:53;;;;;;;4.05;2.38;;;;;;;28.41;23.85;98555.31;5093184;28;20032;-84
2021/05/30 06:15:20;;;;;;;2.92;2.15;;;;;;;28.94;23.53;98548.72;5093318;28;20066;-84
2021/05/30 06:17:54;;;;;;;2.53;2.05;;;;;;;29.52;23.09;98554.78;5092892;28;20024;-84
2021/05/30 06:20:21;;;;;;;2.42;1.95;;;;;;;29.93;22.33;98548.78;5093106;28;20064;-84
2021/05/30 06:22:47;;;;;;;3.78;2.15;;;;;;;29.18;22.88;98549.94;5092933;28;20023;-84
2021/05/30 06:25:13;;;;;;;2.47;2.28;;;;;;;29.14;22.63;98554.09;5091817;28;20047;-84
2021/05/30 06:27:40;;;;;;;2.50;1.83;;;;;;;29.36;22.46;98558.56;5096329;28;20030;-84
2021/05/30 06:30:07;;;;;;;2.15;1.90;;;;;;;29.66;22.95;98556.28;5095602;28;20128;-84
2021/05/30 06:32:33;;;;;;;2.88;2.08;;;;;;;29.97;22.76;98566.44;5096844;28;20036;-84
2021/05/30 06:34:59;;;;;;;2.42;2.00;;;;;;;30.02;22.14;98562.22;5096534;28;20043;-84
2021/05/30 06:37:25;;;;;;;2.88;2.22;;;;;;;29.67;22.19;98569.19;5096442;28;20026;-84
2021/05/30 06:39:52;;;;;;;2.75;2.55;;;;;;;29.04;22.85;98573.00;5096735;28;20422;-84
2021/05/30 06:42:18;;;;;;;3.75;2.88;;;;;;;28.78;22.88;98579.97;5094399;28;20043;-84
2021/05/30 06:44:44;;;;;;;2.80;2.40;;;;;;;28.72;23.61;98573.31;5096393;28;20047;-83
2021/05/30 06:47:10;;;;;;;3.10;2.67;;;;;;;28.69;23.80;98574.19;5096215;28;20357;-84
2021/05/30 06:49:36;;;;;;;3.72;3.25;;;;;;;28.19;23.90;98568.53;5097290;28;20423;-84
2021/05/30 06:52:02;;;;;;;3.05;2.75;;;;;;;28.77;23.73;98574.78;5096343;28;20495;-84
2021/05/30 06:54:28;;;;;;;3.97;2.78;;;;;;;29.18;23.75;98574.59;5096351;28;20116;-84
2021/05/30 06:56:54;;;;;;;5.90;3.45;;;;;;;29.06;22.70;98576.16;5096290;28;20038;-84
2021/05/30 06:59:20;;;;;;;2.15;1.95;;;;;;;28.60;23.60;98574.09;5079479;28;20024;-83
2021/05/30 07:01:46;;;;;;;4.07;3.28;;;;;;;28.70;23.56;98575.81;5076196;28;20074;-83
2021/05/30 07:04:12;;;;;;;3.25;2.45;;;;;;;28.83;23.88;98570.13;5075841;28;20036;-83
2021/05/30 07:06:39;;;;;;;2.78;2.58;;;;;;;28.71;23.79;98578.16;5075949;28;20036;-83
2021/05/30 07:09:06;;;;;;;3.95;2.78;;;;;;;28.91;23.24;98580.75;5081315;28;20039;-83
2021/05/30 07:11:33;;;;;;;3.38;2.75;;;;;;;29.30;22.85;98573.75;5095805;28;20024;-84
2021/05/30 07:13:59;;;;;;;3.00;2.35;;;;;;;29.46;22.77;98586.94;5096251;28;20077;-83
2021/05/30 07:16:25;;;;;;;3.85;2.05;;;;;;;29.18;22.83;98586.69;5096194;28;20036;-84
2021/05/30 07:18:51;;;;;;;3.13;2.42;;;;;;;28.84;22.92;98588.66;5095921;28;20120;-84
2021/05/30 07:21:17;;;;;;;4.25;3.45;;;;;;;28.84;22.98;98586.63;5095686;28;20106;-84
2021/05/30 07:23:44;;;;;;;2.70;2.47;;;;;;;28.36;23.73;98587.75;5095726;28;20042;-84
2021/05/30 07:26:10;;;;;;;3.45;2.38;;;;;;;27.76;24.45;98592.38;5095747;28;20505;-83
2021/05/30 07:28:36;;;;;;;3.42;2.65;;;;;;;28.10;24.98;98591.78;5095539;28;20028;-83
2021/05/30 07:31:02;;;;;;;3.72;2.13;;;;;;;29.02;24.37;98591.69;5095906;28;20111;-84
2021/05/30 07:33:29;;;;;;;5.65;2.65;;;;;;;29.97;23.07;98582.63;5095470;28;20039;-84
2021/05/30 07:35:55;;;;;;;7.00;3.08;;;;;;;30.18;22.83;98578.97;5095855;28;20028;-84
2021/05/30 07:38:22;;;;;;;4.38;3.25;;;;;;;29.86;22.82;98585.88;5094761;28;20039;-84
2021/05/30 07:40:48;;;;;;;6.35;2.83;;;;;;;30.35;22.16;98590.91;5095343;28;20032;-84
2021/05/30 07:43:15;;;;;;;3.30;2.88;;;;;;;29.49;22.68;98591.69;5095349;28;20306;-83
2021/05/30 07:45:41;;;;;;;3.90;2.60;;;;;;;29.20;23.65;98594.72;5095108;28;20043;-83
2021/05/30 07:48:08;;;;;;;3.13;2.55;;;;;;;29.67;23.57;98586.97;5095288;28;20028;-83
2021/05/30 07:50:35;;;;;;;2.95;2.40;;;;;;;30.19;22.96;98588.25;5095257;28;20032;-83
2021/05/30 07:53:02;;;;;;;2.97;2.28;;;;;;;30.43;22.47;98587.34;5095990;28;20028;-84
2021/05/30 07:55:28;;;;;;;3.28;2.45;;;;;;;30.94;21.88;98587.69;5095159;28;20032;-83
2021/05/30 07:57:54;;;;;;;4.63;2.92;;;;;;;30.56;21.94;98585.19;5078372;28;20033;-83
2021/05/30 08:00:21;;;;;;;2.00;1.77;;;;;;;29.69;22.76;98592.16;5080895;28;20063;-83
2021/05/30 08:02:49;;;;;;;3.20;2.90;;;;;;;29.11;23.31;98600.25;5090014;28;20025;-83
2021/05/30 08:05:19;;;;;;;5.15;3.17;;;;;;;28.69;23.97;98596.81;5074733;28;20017;-83
2021/05/30 08:07:46;;;;;;;4.93;3.85;;;;;;;28.24;24.68;98594.16;5075017;28;20032;-84
2021/05/30 08:10:14;;;;;;;6.60;3.03;;;;;;;28.89;24.08;98599.41;5089382;28;20020;-84
2021/05/30 08:12:40;;;;;;;5.68;2.63;;;;;;;27.98;25.47;98601.78;5094590;28;20468;-84
2021/05/30 08:15:08;;;;;;;3.25;2.65;;;;;;;28.41;25.26;98604.13;5095018;28;20063;-83
2021/05/30 08:17:35;;;;;;;3.78;2.83;;;;;;;28.42;25.31;98608.56;5094913;28;20063;-84
2021/05/30 08:20:02;;;;;;;3.30;2.42;;;;;;;28.42;25.63;98605.72;5094860;28;20414;-84
2021/05/30 08:22:28;;;;;;;3.60;2.78;;;;;;;29.15;24.16;98607.38;5094632;28;20032;-84
2021/05/30 08:24:54;;;;;;;4.75;2.78;;;;;;;29.57;23.82;98601.50;5094576;28;20491;-84
2021/05/30 08:27:20;;;;;;;3.45;2.50;;;;;;;30.18;23.38;98603.69;5094383;28;20028;-83
2021/05/30 08:29:46;;;;;;;4.35;3.03;;;;;;;30.44;22.34;98600.25;5094529;28;20099;-84
2021/05/30 08:32:14;;;;;;;6.07;4.53;;;;;;;30.47;22.24;98604.97;5094738;28;20036;-83
2021/05/30 08:34:40;;;;;;;4.00;3.13;;;;;;;30.11;23.12;98609.63;5094277;28;20387;-84
2021/05/30 08:37:07;;;;;;;3.13;2.53;;;;;;;30.09;22.89;98598.75;5094466;28;20024;-83
2021/05/30 08:39:33;;;;;;;4.15;2.97;;;;;;;29.93;23.16;98599.75;5094210;28;20036;-83
2021/05/30 08:41:59;;;;;;;5.90;4.05;;;;;;;29.88;23.68;98610.88;5094404;28;20032;-83
2021/05/30 08:44:26;;;;;;;3.35;2.78;;;;;;;30.06;23.65;98608.97;5094255;28;20027;-83
2021/05/30 08:46:52;;;;;;;2.88;2.13;;;;;;;30.31;23.94;98607.22;5094101;28;20032;-84
2021/05/30 08:49:18;;;;;;;4.50;3.33;;;;;;;30.26;23.58;98610.66;5093774;28;20054;-84
2021/05/30 08:51:44;;;;;;;2.80;1.85;;;;;;;30.29;24.50;98613.38;5093767;28;20024;-84
2021/05/30 08:54:19;;;;;;;3.17;2.53;;;;;;;29.90;23.81;98612.00;5093896;28;20028;-84
2021/05/30 08:56:47;;;;;;;3.78;3.35;;;;;;;29.66;24.26;98619.34;5081412;28;20110;-84
2021/05/30 08:59:37;;;;;;;3.17;2.55;;;;;;;29.44;24.63;98624.19;5091972;28;20034;-84
2021/05/30 09:02:12;;;;;;;2.15;1.95;;;;;;;28.71;24.23;98623.38;5094332;28;20085;-84
2021/05/30 09:04:41;;;;;;;2.15;1.80;;;;;;;29.53;24.48;98617.81;5094157;28;20032;-84
2021/05/30 09:07:08;;;;;;;2.17;1.98;;;;;;;29.02;24.92;98636.91;5093856;28;20036;-84
2021/05/30 09:09:46;;;;;;;1.48;1.38;;;;;;;27.86;25.67;98625.13;5094065;28;20031;-85
2021/05/30 09:12:39;;;;;;;2.38;1.50;;;;;;;26.44;27.62;98634.81;5093297;28;20035;-85
2021/05/30 09:15:09;;;;;;;1.48;1.35;;;;;;;27.41;26.91;98627.19;5093655;28;20545;-85
2021/05/30 09:17:35;;;;;;;1.20;1.10;;;;;;;28.54;25.71;98626.75;5093934;28;20032;-85
2021/05/30 09:20:04;;;;;;;1.75;1.20;;;;;;;27.64;26.31;98631.81;5093875;28;20028;-85
2021/05/30 09:22:39;;;;;;;1.20;1.08;;;;;;;28.06;26.18;98630.63;5093555;28;20024;-85
2021/05/30 09:25:15;;;;;;;1.05;0.88;;;;;;;27.63;26.53;98622.56;5092431;28;20039;-85
2021/05/30 09:27:46;;;;;;;1.05;1.02;;;;;;;28.83;24.82;98623.81;5093438;28;20476;-85
2021/05/30 09:30:24;;;;;;;1.42;1.13;;;;;;;29.15;24.47;98632.81;5093868;28;20119;-85
2021/05/30 09:33:23;;;;;;;0.88;0.70;;;;;;;29.62;23.44;98629.19;5093763;28;20054;-85
2021/05/30 09:35:54;;;;;;;1.00;0.90;;;;;;;30.42;23.16;98633.13;5093381;28;20528;-85
2021/05/30 09:38:37;;;;;;;0.95;0.90;;;;;;;30.42;22.90;98628.25;5093751;28;20116;-85
2021/05/30 09:41:12;;;;;;;1.33;0.93;;;;;;;30.73;22.81;98629.03;5093353;28;20115;-85
2021/05/30 09:43:51;;;;;;;1.30;0.90;;;;;;;30.54;22.82;98633.03;5093414;28;20490;-85
2021/05/30 09:46:22;;;;;;;1.25;0.80;;;;;;;29.99;22.63;98625.44;5093456;28;20536;-84
2021/05/30 09:48:55;;;;;;;0.73;0.73;;;;;;;30.04;22.86;98619.16;5093845;28;20058;-85
2021/05/30 09:51:37;;;;;;;0.82;0.82;;;;;;;29.97;23.44;98625.91;5093599;28;20020;-85
2021/05/30 09:54:05;;;;;;;1.38;0.90;;;;;;;30.15;23.36;98621.63;5086490;28;20033;-85
2021/05/30 09:56:43;;;;;;;1.00;0.80;;;;;;;29.81;24.18;98620.44;5073118;28;20033;-85
2021/05/30 09:59:14;;;;;;;1.05;0.90;;;;;;;29.92;23.72;98620.81;5073065;28;20028;-84
2021/05/30 10:01:59;;;;;;;2.88;1.85;;;;;;;30.54;23.23;98620.91;5079675;28;20028;-84
2021/05/30 10:04:30;;;;;;;1.90;0.80;;;;;;;31.01;22.64;98614.97;5097324;28;20039;-85
2021/05/30 10:06:58;;;;;;;2.05;0.70;;;;;;;30.32;23.50;98609.59;5097570;28;20033;-84
2021/05/30 10:09:25;;;;;;;1.75;0.60;;;;;;;29.62;23.52;98615.84;5096930;28;20032;-84
2021/05/30 10:11:52;;;;;;;0.82;0.82;;;;;;;29.52;23.98;98613.41;5097058;28;20032;-84
2021/05/30 10:14:18;;;;;;;0.60;0.60;;;;;;;29.71;23.77;98612.31;5097174;28;20107;-84
2021/05/30 10:16:44;;;;;;;0.70;0.60;;;;;;;29.16;25.07;98627.97;5097261;28;20035;-84
2021/05/30 10:19:16;;;;;;;0.50;0.50;;;;;;;29.67;23.43;98620.91;5096781;28;20044;-84
2021/05/30 10:21:47;;;;;;;0.77;0.60;;;;;;;28.33;24.81;98622.56;5096877;28;20040;-85
2021/05/30 10:24:14;;;;;;;0.50;0.50;;;;;;;28.85;24.22;98619.28;5096779;28;20088;-84
2021/05/30 10:26:40;;;;;;;0.40;0.40;;;;;;;29.24;23.23;98620.84;5097183;28;20036;-84
2021/05/30 10:29:17;;;;;;;0.52;0.52;;;;;;;29.95;22.59;98614.25;5095601;28;20395;-84
2021/05/30 10:31:45;;;;;;;0.70;0.70;;;;;;;31.00;22.92;98607.69;5096875;28;20487;-84
2021/05/30 10:34:17;;;;;;;0.20;0.20;;;;;;;29.89;22.05;98613.28;5096659;28;20047;-85
2021/05/30 10:36:59;;;;;;;0.25;0.25;;;;;;;29.65;22.30;98614.13;5095291;28;20031;-84
2021/05/30 10:39:31;;;;;;;0.47;0.30;;;;;;;28.68;23.54;98615.78;5096959;28;20365;-85
2021/05/30 10:42:17;;;;;;;0.20;0.20;;;;;;;28.93;23.89;98615.00;5096669;28;20028;-85
2021/05/30 10:44:58;;;;;;;0.20;0.20;;;;;;;28.31;24.53;98619.38;5096525;28;20123;-85
2021/05/30 10:47:43;;;;;;;0.20;0.20;;;;;;;28.59;24.02;98612.09;5096427;28;20036;-85
2021/05/30 10:50:15;;;;;;;0.30;0.30;;;;;;;28.91;23.66;98603.34;5095257;28;20055;-85
2021/05/30 10:52:43;;;;;;;1.45;0.20;;;;;;;31.09;22.30;98600.00;5096436;28;20027;-85
2021/05/30 10:55:26;;;;;;;0.50;0.30;;;;;;;32.28;20.96;98593.06;5092479;28;20408;-85
2021/05/30 10:57:52;;;;;;;0.63;0.20;;;;;;;32.48;20.22;98596.16;5096206;28;20582;-86
2021/05/30 11:00:21;;;;;;;0.30;0.20;;;;;;;30.99;20.96;98598.44;5096610;28;20024;-86
2021/05/30 11:03:05;;;;;;;0.60;0.30;;;;;;;29.05;23.57;98614.19;5096488;28;20028;-86
2021/05/30 11:05:51;;;;;;;1.33;0.30;;;;;;;27.26;27.39;98625.94;5096414;28;20015;-86
2021/05/30 11:08:29;;;;;;;0.30;0.30;;;;;;;29.22;25.89;98635.44;5096081;28;20032;-85
2021/05/30 11:11:21;;;;;;;0.47;0.47;;;;;;;29.17;25.72;98630.31;5095634;28;20036;-85
2021/05/30 11:14:10;;;;;;;0.55;0.38;;;;;;;29.37;24.94;98630.88;5094813;28;20093;-85
2021/05/30 11:16:43;;;;;;;0.65;0.40;;;;;;;30.05;25.07;98618.72;5095757;28;20036;-85
2021/05/30 11:19:13;;;;;;;0.60;0.60;;;;;;;30.12;24.92;98614.84;5095950;28;20106;-85
2021/05/30 11:21:43;;;;;;;0.60;0.60;;;;;;;30.40;24.64;98613.75;5095810;28;20032;-85
2021/05/30 11:24:16;;;;;;;0.60;0.60;;;;;;;30.80;25.14;98612.97;5095876;28;20032;-86
2021/05/30 11:26:58;;;;;;;1.13;0.47;;;;;;;31.48;24.83;98611.75;5095647;28;20032;-86
2021/05/30 11:29:26;;;;;;;0.60;0.52;;;;;;;31.72;23.18;98612.69;5095755;28;20066;-85
2021/05/30 11:31:52;;;;;;;0.65;0.65;;;;;;;31.35;22.81;98618.34;5095908;28;20115;-85
2021/05/30 11:34:19;;;;;;;1.42;0.52;;;;;;;31.89;23.27;98614.75;5095555;28;20036;-85
2021/05/30 11:36:47;;;;;;;0.45;0.43;;;;;;;32.36;23.35;98619.09;5095361;28;20028;-85
2021/05/30 11:39:15;;;;;;;0.50;0.47;;;;;;;32.43;22.86;98610.25;5095805;28;20394;-85
2021/05/30 11:41:56;;;;;;;1.08;0.60;;;;;;;32.61;23.23;98613.84;5087870;28;20059;-85